MDW weather

Chicago Midway International Airport
Chicago, Illinois, United States

Public forecast

Using degrees Fahrenheit for public forecast. Weather courtesy of forecast.io.

Current aviation weather report (METAR) for Chicago Midway International Airport

Retrieved 2020/05/27 08:53 UTC (47 minutes ago):

KMDW 270853Z 19006KT 10SM SCT090 BKN110 24/19 A2994 RMK AO2 SLP127 T02390194 56005

Aviation forecast (TAF) for Chicago Midway International Airport

Retrieved 2020/05/27 06:22 UTC (3 hours ago):

TAF KMDW 270520Z 2706/2812 19007KT P6SM FEW040 BKN150 FM272000 15009KT P6SM BKN040 PROB30 2722/2802 4SM -TSRA BKN035CB FM280800 19005KT P6SM SCT025 BKN040